sensor_id;sensor_type;location;lat;lon;timestamp;temperature;humidity
6377;DHT22;3221;48.858;10.128;2023-04-25T00:01:56;7.30;99.90
6377;DHT22;3221;48.858;10.128;2023-04-25T00:04:23;7.30;99.90
6377;DHT22;3221;48.858;10.128;2023-04-25T00:06:50;7.30;99.90
6377;DHT22;3221;48.858;10.128;2023-04-25T00:09:18;7.30;99.90
6377;DHT22;3221;48.858;10.128;2023-04-25T00:11:45;7.30;99.90
6377;DHT22;3221;48.858;10.128;2023-04-25T00:14:12;7.30;99.90
6377;DHT22;3221;48.858;10.128;2023-04-25T00:16:39;7.30;99.90
6377;DHT22;3221;48.858;10.128;2023-04-25T00:19:07;7.40;99.90
6377;DHT22;3221;48.858;10.128;2023-04-25T00:21:36;7.40;99.90
6377;DHT22;3221;48.858;10.128;2023-04-25T00:24:04;7.20;99.90
6377;DHT22;3221;48.858;10.128;2023-04-25T00:26:31;7.20;99.90
6377;DHT22;3221;48.858;10.128;2023-04-25T00:28:58;7.40;99.90
6377;DHT22;3221;48.858;10.128;2023-04-25T00:31:25;7.30;99.90
6377;DHT22;3221;48.858;10.128;2023-04-25T00:33:52;7.20;99.90
6377;DHT22;3221;48.858;10.128;2023-04-25T00:36:20;7.20;99.90
6377;DHT22;3221;48.858;10.128;2023-04-25T00:38:47;7.20;99.90
6377;DHT22;3221;48.858;10.128;2023-04-25T00:41:14;7.20;99.90
6377;DHT22;3221;48.858;10.128;2023-04-25T00:43:41;7.20;99.90
6377;DHT22;3221;48.858;10.128;2023-04-25T00:46:08;7.20;99.90
6377;DHT22;3221;48.858;10.128;2023-04-25T00:48:35;7.20;99.90
6377;DHT22;3221;48.858;10.128;2023-04-25T00:51:02;7.30;99.90
6377;DHT22;3221;48.858;10.128;2023-04-25T00:53:30;7.30;99.90
6377;DHT22;3221;48.858;10.128;2023-04-25T00:55:58;7.20;99.90
6377;DHT22;3221;48.858;10.128;2023-04-25T00:58:25;7.40;99.90
6377;DHT22;3221;48.858;10.128;2023-04-25T01:00:52;7.30;99.90
6377;DHT22;3221;48.858;10.128;2023-04-25T01:03:19;7.30;99.90
6377;DHT22;3221;48.858;10.128;2023-04-25T01:05:47;7.30;99.90
6377;DHT22;3221;48.858;10.128;2023-04-25T01:08:14;7.30;99.90
6377;DHT22;3221;48.858;10.128;2023-04-25T01:10:41;7.40;99.90
6377;DHT22;3221;48.858;10.128;2023-04-25T01:13:09;7.50;99.90
6377;DHT22;3221;48.858;10.128;2023-04-25T01:15:36;7.40;99.90
6377;DHT22;3221;48.858;10.128;2023-04-25T01:18:05;7.40;99.90
6377;DHT22;3221;48.858;10.128;2023-04-25T01:20:33;7.50;99.90
6377;DHT22;3221;48.858;10.128;2023-04-25T01:23:01;7.50;99.90
6377;DHT22;3221;48.858;10.128;2023-04-25T01:25:32;7.40;99.90
6377;DHT22;3221;48.858;10.128;2023-04-25T01:28:00;7.30;99.90
6377;DHT22;3221;48.858;10.128;2023-04-25T01:30:28;7.30;99.90
6377;DHT22;3221;48.858;10.128;2023-04-25T01:32:56;7.40;99.90
6377;DHT22;3221;48.858;10.128;2023-04-25T01:35:24;7.40;99.90
6377;DHT22;3221;48.858;10.128;2023-04-25T01:37:53;7.40;99.90
6377;DHT22;3221;48.858;10.128;2023-04-25T01:40:21;7.30;99.90
6377;DHT22;3221;48.858;10.128;2023-04-25T01:42:48;7.30;99.90
6377;DHT22;3221;48.858;10.128;2023-04-25T01:45:15;7.20;99.90
6377;DHT22;3221;48.858;10.128;2023-04-25T01:47:43;7.30;99.90
6377;DHT22;3221;48.858;10.128;2023-04-25T01:50:13;7.20;99.90
6377;DHT22;3221;48.858;10.128;2023-04-25T01:52:40;7.30;99.90
6377;DHT22;3221;48.858;10.128;2023-04-25T01:55:08;7.30;99.90
6377;DHT22;3221;48.858;10.128;2023-04-25T01:57:38;7.30;99.90
6377;DHT22;3221;48.858;10.128;2023-04-25T02:00:06;7.30;99.90
6377;DHT22;3221;48.858;10.128;2023-04-25T02:02:39;7.20;99.90
6377;DHT22;3221;48.858;10.128;2023-04-25T02:05:17;7.30;99.90
6377;DHT22;3221;48.858;10.128;2023-04-25T02:07:44;7.20;99.90
6377;DHT22;3221;48.858;10.128;2023-04-25T02:10:11;7.10;99.90
6377;DHT22;3221;48.858;10.128;2023-04-25T02:12:57;7.20;99.90
6377;DHT22;3221;48.858;10.128;2023-04-25T02:15:47;7.10;99.90
6377;DHT22;3221;48.858;10.128;2023-04-25T02:18:16;7.00;99.90
6377;DHT22;3221;48.858;10.128;2023-04-25T02:20:44;7.00;99.90
6377;DHT22;3221;48.858;10.128;2023-04-25T02:23:11;7.00;99.90
6377;DHT22;3221;48.858;10.128;2023-04-25T02:25:38;7.00;99.90
6377;DHT22;3221;48.858;10.128;2023-04-25T02:28:05;7.00;99.90
6377;DHT22;3221;48.858;10.128;2023-04-25T02:30:32;7.00;99.90
6377;DHT22;3221;48.858;10.128;2023-04-25T02:32:59;7.00;99.90
6377;DHT22;3221;48.858;10.128;2023-04-25T02:35:26;7.10;99.90
6377;DHT22;3221;48.858;10.128;2023-04-25T02:37:53;7.10;99.90
6377;DHT22;3221;48.858;10.128;2023-04-25T02:40:20;7.10;99.90
6377;DHT22;3221;48.858;10.128;2023-04-25T02:42:47;7.20;99.90
6377;DHT22;3221;48.858;10.128;2023-04-25T02:45:14;7.10;99.90
6377;DHT22;3221;48.858;10.128;2023-04-25T02:47:41;7.10;99.90
6377;DHT22;3221;48.858;10.128;2023-04-25T02:50:08;7.00;99.90
6377;DHT22;3221;48.858;10.128;2023-04-25T02:52:36;7.10;99.90
6377;DHT22;3221;48.858;10.128;2023-04-25T02:55:16;7.10;99.90
6377;DHT22;3221;48.858;10.128;2023-04-25T02:57:44;7.10;99.90
6377;DHT22;3221;48.858;10.128;2023-04-25T03:00:15;7.10;99.90
6377;DHT22;3221;48.858;10.128;2023-04-25T03:02:42;7.10;99.90
6377;DHT22;3221;48.858;10.128;2023-04-25T03:05:09;7.10;99.90
6377;DHT22;3221;48.858;10.128;2023-04-25T03:07:37;7.10;99.90
6377;DHT22;3221;48.858;10.128;2023-04-25T03:10:07;7.00;99.90
6377;DHT22;3221;48.858;10.128;2023-04-25T03:12:35;7.00;99.90
6377;DHT22;3221;48.858;10.128;2023-04-25T03:15:03;7.00;99.90
6377;DHT22;3221;48.858;10.128;2023-04-25T03:17:30;7.00;99.90
6377;DHT22;3221;48.858;10.128;2023-04-25T03:19:58;7.00;99.90
6377;DHT22;3221;48.858;10.128;2023-04-25T03:22:25;7.10;99.90
6377;DHT22;3221;48.858;10.128;2023-04-25T03:24:51;7.20;99.90
6377;DHT22;3221;48.858;10.128;2023-04-25T03:27:19;7.10;99.90
6377;DHT22;3221;48.858;10.128;2023-04-25T03:29:46;7.00;99.90
6377;DHT22;3221;48.858;10.128;2023-04-25T03:32:13;7.00;99.90
6377;DHT22;3221;48.858;10.128;2023-04-25T03:34:40;7.00;99.90
6377;DHT22;3221;48.858;10.128;2023-04-25T03:37:08;7.00;99.90
6377;DHT22;3221;48.858;10.128;2023-04-25T03:39:37;6.90;99.90
6377;DHT22;3221;48.858;10.128;2023-04-25T03:42:06;7.10;99.90
6377;DHT22;3221;48.858;10.128;2023-04-25T03:44:33;7.10;99.90
6377;DHT22;3221;48.858;10.128;2023-04-25T03:47:00;7.10;99.90
6377;DHT22;3221;48.858;10.128;2023-04-25T03:49:28;7.10;99.90
6377;DHT22;3221;48.858;10.128;2023-04-25T03:51:59;7.00;99.90
6377;DHT22;3221;48.858;10.128;2023-04-25T03:54:29;7.00;99.90
6377;DHT22;3221;48.858;10.128;2023-04-25T03:57:13;7.10;99.90
6377;DHT22;3221;48.858;10.128;2023-04-25T03:59:41;7.00;99.90
6377;DHT22;3221;48.858;10.128;2023-04-25T04:02:11;7.00;99.90
6377;DHT22;3221;48.858;10.128;2023-04-25T04:04:39;7.10;99.90
6377;DHT22;3221;48.858;10.128;2023-04-25T04:07:06;7.00;99.90
6377;DHT22;3221;48.858;10.128;2023-04-25T04:09:36;7.00;99.90
6377;DHT22;3221;48.858;10.128;2023-04-25T04:12:07;7.00;99.90
6377;DHT22;3221;48.858;10.128;2023-04-25T04:14:36;6.90;99.90
6377;DHT22;3221;48.858;10.128;2023-04-25T04:17:03;7.00;99.90
6377;DHT22;3221;48.858;10.128;2023-04-25T04:19:30;7.00;99.90
6377;DHT22;3221;48.858;10.128;2023-04-25T04:22:29;6.90;99.90
6377;DHT22;3221;48.858;10.128;2023-04-25T04:25:00;6.90;99.90
6377;DHT22;3221;48.858;10.128;2023-04-25T04:27:47;7.00;99.90
6377;DHT22;3221;48.858;10.128;2023-04-25T04:30:26;7.00;99.90
6377;DHT22;3221;48.858;10.128;2023-04-25T04:32:58;6.80;99.90
6377;DHT22;3221;48.858;10.128;2023-04-25T04:35:25;7.00;99.90
6377;DHT22;3221;48.858;10.128;2023-04-25T04:37:53;7.20;99.90
6377;DHT22;3221;48.858;10.128;2023-04-25T04:40:21;7.00;99.90
6377;DHT22;3221;48.858;10.128;2023-04-25T04:43:04;7.00;99.90
6377;DHT22;3221;48.858;10.128;2023-04-25T04:45:50;6.90;99.90
6377;DHT22;3221;48.858;10.128;2023-04-25T04:48:32;6.90;99.90
6377;DHT22;3221;48.858;10.128;2023-04-25T04:51:19;7.10;99.90
6377;DHT22;3221;48.858;10.128;2023-04-25T04:53:53;7.00;99.90
6377;DHT22;3221;48.858;10.128;2023-04-25T04:56:49;6.90;99.90
6377;DHT22;3221;48.858;10.128;2023-04-25T04:59:17;7.00;99.90
6377;DHT22;3221;48.858;10.128;2023-04-25T05:02:19;7.00;99.90
6377;DHT22;3221;48.858;10.128;2023-04-25T05:05:14;6.90;99.90
6377;DHT22;3221;48.858;10.128;2023-04-25T05:07:56;6.90;99.90
6377;DHT22;3221;48.858;10.128;2023-04-25T05:10:38;6.90;99.90
6377;DHT22;3221;48.858;10.128;2023-04-25T05:13:17;7.00;99.90
6377;DHT22;3221;48.858;10.128;2023-04-25T05:15:57;6.90;99.90
6377;DHT22;3221;48.858;10.128;2023-04-25T05:18:34;7.00;99.90
6377;DHT22;3221;48.858;10.128;2023-04-25T05:21:09;7.00;99.90
6377;DHT22;3221;48.858;10.128;2023-04-25T05:23:54;7.00;99.90
6377;DHT22;3221;48.858;10.128;2023-04-25T05:26:41;7.00;99.90
6377;DHT22;3221;48.858;10.128;2023-04-25T05:29:22;6.90;99.90
6377;DHT22;3221;48.858;10.128;2023-04-25T05:32:21;6.80;99.90
6377;DHT22;3221;48.858;10.128;2023-04-25T05:34:49;7.00;99.90
6377;DHT22;3221;48.858;10.128;2023-04-25T05:37:24;6.90;99.90
6377;DHT22;3221;48.858;10.128;2023-04-25T05:39:55;7.00;99.90
6377;DHT22;3221;48.858;10.128;2023-04-25T05:42:45;7.10;99.90
6377;DHT22;3221;48.858;10.128;2023-04-25T05:45:28;7.00;99.90
6377;DHT22;3221;48.858;10.128;2023-04-25T05:47:58;7.00;99.90
6377;DHT22;3221;48.858;10.128;2023-04-25T05:50:47;7.00;99.90
6377;DHT22;3221;48.858;10.128;2023-04-25T05:53:47;7.10;99.90
6377;DHT22;3221;48.858;10.128;2023-04-25T05:56:14;7.00;99.90
6377;DHT22;3221;48.858;10.128;2023-04-25T05:58:41;7.00;99.90
6377;DHT22;3221;48.858;10.128;2023-04-25T06:01:12;6.90;99.90
6377;DHT22;3221;48.858;10.128;2023-04-25T06:03:39;6.90;99.90
6377;DHT22;3221;48.858;10.128;2023-04-25T06:06:11;6.90;99.90
6377;DHT22;3221;48.858;10.128;2023-04-25T06:08:37;7.00;99.90
6377;DHT22;3221;48.858;10.128;2023-04-25T06:11:05;6.90;99.90
6377;DHT22;3221;48.858;10.128;2023-04-25T06:13:33;7.00;99.90
6377;DHT22;3221;48.858;10.128;2023-04-25T06:16:00;7.10;99.90
6377;DHT22;3221;48.858;10.128;2023-04-25T06:18:27;7.10;99.90
6377;DHT22;3221;48.858;10.128;2023-04-25T06:20:54;7.10;99.90
6377;DHT22;3221;48.858;10.128;2023-04-25T06:23:22;7.00;99.90
6377;DHT22;3221;48.858;10.128;2023-04-25T06:25:59;7.00;99.90
6377;DHT22;3221;48.858;10.128;2023-04-25T06:28:27;7.00;99.90
6377;DHT22;3221;48.858;10.128;2023-04-25T06:30:53;7.10;99.90
6377;DHT22;3221;48.858;10.128;2023-04-25T06:33:21;6.90;99.90
6377;DHT22;3221;48.858;10.128;2023-04-25T06:35:49;7.00;99.90
6377;DHT22;3221;48.858;10.128;2023-04-25T06:38:20;7.10;99.90
6377;DHT22;3221;48.858;10.128;2023-04-25T06:40:50;7.10;99.90
6377;DHT22;3221;48.858;10.128;2023-04-25T06:43:18;7.00;99.90
6377;DHT22;3221;48.858;10.128;2023-04-25T06:45:45;6.90;99.90
6377;DHT22;3221;48.858;10.128;2023-04-25T06:48:14;7.00;99.90
6377;DHT22;3221;48.858;10.128;2023-04-25T06:50:42;6.90;99.90
6377;DHT22;3221;48.858;10.128;2023-04-25T06:53:10;7.00;99.90
6377;DHT22;3221;48.858;10.128;2023-04-25T06:55:39;7.10;99.90
6377;DHT22;3221;48.858;10.128;2023-04-25T06:58:17;7.10;99.90
6377;DHT22;3221;48.858;10.128;2023-04-25T07:01:03;7.10;99.90
6377;DHT22;3221;48.858;10.128;2023-04-25T07:03:30;7.10;99.90
6377;DHT22;3221;48.858;10.128;2023-04-25T07:06:02;7.10;99.90
6377;DHT22;3221;48.858;10.128;2023-04-25T07:08:30;7.20;99.90
6377;DHT22;3221;48.858;10.128;2023-04-25T07:10:58;7.20;99.90
6377;DHT22;3221;48.858;10.128;2023-04-25T07:13:25;7.10;99.90
6377;DHT22;3221;48.858;10.128;2023-04-25T07:15:52;7.10;99.90
6377;DHT22;3221;48.858;10.128;2023-04-25T07:18:22;7.20;99.90
6377;DHT22;3221;48.858;10.128;2023-04-25T07:20:49;7.20;99.90
6377;DHT22;3221;48.858;10.128;2023-04-25T07:23:17;7.30;99.90
6377;DHT22;3221;48.858;10.128;2023-04-25T07:25:45;7.20;99.90
6377;DHT22;3221;48.858;10.128;2023-04-25T07:28:15;7.40;99.90
6377;DHT22;3221;48.858;10.128;2023-04-25T07:30:46;7.20;99.90
6377;DHT22;3221;48.858;10.128;2023-04-25T07:33:13;7.20;99.90
6377;DHT22;3221;48.858;10.128;2023-04-25T07:35:40;7.20;99.90
6377;DHT22;3221;48.858;10.128;2023-04-25T07:38:07;7.10;99.90
6377;DHT22;3221;48.858;10.128;2023-04-25T07:40:35;7.20;99.90
6377;DHT22;3221;48.858;10.128;2023-04-25T07:43:06;7.20;99.90
6377;DHT22;3221;48.858;10.128;2023-04-25T07:45:40;7.20;99.90
6377;DHT22;3221;48.858;10.128;2023-04-25T07:48:08;7.20;99.90
6377;DHT22;3221;48.858;10.128;2023-04-25T07:50:37;7.20;99.90
6377;DHT22;3221;48.858;10.128;2023-04-25T07:53:04;7.10;99.90
6377;DHT22;3221;48.858;10.128;2023-04-25T07:55:36;7.20;99.90
6377;DHT22;3221;48.858;10.128;2023-04-25T07:58:11;7.20;99.90
6377;DHT22;3221;48.858;10.128;2023-04-25T08:00:40;7.10;99.90
6377;DHT22;3221;48.858;10.128;2023-04-25T08:03:28;7.20;99.90
6377;DHT22;3221;48.858;10.128;2023-04-25T08:05:56;7.20;99.90
6377;DHT22;3221;48.858;10.128;2023-04-25T08:08:26;7.20;99.90
6377;DHT22;3221;48.858;10.128;2023-04-25T08:10:53;7.00;99.90
6377;DHT22;3221;48.858;10.128;2023-04-25T08:13:20;7.00;99.90
6377;DHT22;3221;48.858;10.128;2023-04-25T08:15:47;7.00;99.90
6377;DHT22;3221;48.858;10.128;2023-04-25T08:18:14;7.10;99.90
6377;DHT22;3221;48.858;10.128;2023-04-25T08:20:45;7.20;99.90
6377;DHT22;3221;48.858;10.128;2023-04-25T08:23:13;7.10;99.90
6377;DHT22;3221;48.858;10.128;2023-04-25T08:25:59;7.10;99.90
6377;DHT22;3221;48.858;10.128;2023-04-25T08:28:28;7.10;99.90
6377;DHT22;3221;48.858;10.128;2023-04-25T08:30:57;7.10;99.90
6377;DHT22;3221;48.858;10.128;2023-04-25T08:33:26;7.00;99.90
6377;DHT22;3221;48.858;10.128;2023-04-25T08:36:01;7.10;99.90
6377;DHT22;3221;48.858;10.128;2023-04-25T08:38:29;7.10;99.90
6377;DHT22;3221;48.858;10.128;2023-04-25T08:40:59;7.20;99.90
6377;DHT22;3221;48.858;10.128;2023-04-25T08:43:29;7.20;99.90
6377;DHT22;3221;48.858;10.128;2023-04-25T08:45:59;7.20;99.90
6377;DHT22;3221;48.858;10.128;2023-04-25T08:48:35;7.20;99.90
6377;DHT22;3221;48.858;10.128;2023-04-25T08:51:06;7.20;99.90
6377;DHT22;3221;48.858;10.128;2023-04-25T08:53:39;7.10;99.90
6377;DHT22;3221;48.858;10.128;2023-04-25T08:56:10;7.10;99.90
6377;DHT22;3221;48.858;10.128;2023-04-25T08:58:40;7.10;99.90
6377;DHT22;3221;48.858;10.128;2023-04-25T09:01:08;7.20;99.90
6377;DHT22;3221;48.858;10.128;2023-04-25T09:03:44;7.10;99.90
6377;DHT22;3221;48.858;10.128;2023-04-25T09:06:11;7.00;99.90
6377;DHT22;3221;48.858;10.128;2023-04-25T09:08:39;7.00;99.90
6377;DHT22;3221;48.858;10.128;2023-04-25T09:11:07;7.00;99.90
6377;DHT22;3221;48.858;10.128;2023-04-25T09:13:34;7.00;99.90
6377;DHT22;3221;48.858;10.128;2023-04-25T09:16:20;7.00;99.90
6377;DHT22;3221;48.858;10.128;2023-04-25T09:19:24;7.10;99.90
6377;DHT22;3221;48.858;10.128;2023-04-25T09:22:14;7.00;99.90
6377;DHT22;3221;48.858;10.128;2023-04-25T09:24:43;7.10;99.90
6377;DHT22;3221;48.858;10.128;2023-04-25T09:27:18;7.10;99.90
6377;DHT22;3221;48.858;10.128;2023-04-25T09:29:47;7.00;99.90
6377;DHT22;3221;48.858;10.128;2023-04-25T09:32:23;7.00;99.90
6377;DHT22;3221;48.858;10.128;2023-04-25T09:34:55;7.00;99.90
6377;DHT22;3221;48.858;10.128;2023-04-25T09:37:27;7.00;99.90
6377;DHT22;3221;48.858;10.128;2023-04-25T09:40:13;7.10;99.90
6377;DHT22;3221;48.858;10.128;2023-04-25T09:42:54;7.10;99.90
6377;DHT22;3221;48.858;10.128;2023-04-25T09:45:23;7.30;99.90
6377;DHT22;3221;48.858;10.128;2023-04-25T09:47:50;7.20;99.90
6377;DHT22;3221;48.858;10.128;2023-04-25T09:50:25;7.10;99.90
6377;DHT22;3221;48.858;10.128;2023-04-25T09:53:03;7.30;99.90
6377;DHT22;3221;48.858;10.128;2023-04-25T09:55:48;7.10;99.90
6377;DHT22;3221;48.858;10.128;2023-04-25T09:58:15;7.20;99.90
6377;DHT22;3221;48.858;10.128;2023-04-25T10:00:42;7.20;99.90
6377;DHT22;3221;48.858;10.128;2023-04-25T10:03:24;7.20;99.90
6377;DHT22;3221;48.858;10.128;2023-04-25T10:06:19;7.20;99.90
6377;DHT22;3221;48.858;10.128;2023-04-25T10:08:51;7.20;99.90
6377;DHT22;3221;48.858;10.128;2023-04-25T10:11:20;7.20;99.90
6377;DHT22;3221;48.858;10.128;2023-04-25T10:13:50;7.20;99.90
6377;DHT22;3221;48.858;10.128;2023-04-25T10:16:17;7.10;99.90
6377;DHT22;3221;48.858;10.128;2023-04-25T10:18:45;7.20;99.90
6377;DHT22;3221;48.858;10.128;2023-04-25T10:21:12;7.30;99.90
6377;DHT22;3221;48.858;10.128;2023-04-25T10:23:41;7.40;99.90
6377;DHT22;3221;48.858;10.128;2023-04-25T10:26:08;7.60;99.90
6377;DHT22;3221;48.858;10.128;2023-04-25T10:28:59;7.80;99.90
6377;DHT22;3221;48.858;10.128;2023-04-25T10:31:26;7.90;99.90
6377;DHT22;3221;48.858;10.128;2023-04-25T10:33:54;7.60;99.90
6377;DHT22;3221;48.858;10.128;2023-04-25T10:36:22;7.60;99.90
6377;DHT22;3221;48.858;10.128;2023-04-25T10:38:50;7.60;99.90
6377;DHT22;3221;48.858;10.128;2023-04-25T10:41:18;7.50;99.90
6377;DHT22;3221;48.858;10.128;2023-04-25T10:43:47;7.30;99.90
6377;DHT22;3221;48.858;10.128;2023-04-25T10:46:25;7.40;99.90
6377;DHT22;3221;48.858;10.128;2023-04-25T10:48:55;7.40;99.90
6377;DHT22;3221;48.858;10.128;2023-04-25T10:51:26;7.40;99.90
6377;DHT22;3221;48.858;10.128;2023-04-25T10:53:59;7.50;99.90
6377;DHT22;3221;48.858;10.128;2023-04-25T10:56:32;7.40;99.90
6377;DHT22;3221;48.858;10.128;2023-04-25T10:59:19;7.30;99.90
6377;DHT22;3221;48.858;10.128;2023-04-25T11:01:48;7.40;99.90
6377;DHT22;3221;48.858;10.128;2023-04-25T11:04:20;7.60;99.90
6377;DHT22;3221;48.858;10.128;2023-04-25T11:07:10;7.40;99.90
6377;DHT22;3221;48.858;10.128;2023-04-25T11:09:41;7.50;99.90
6377;DHT22;3221;48.858;10.128;2023-04-25T11:12:09;7.70;99.90
6377;DHT22;3221;48.858;10.128;2023-04-25T11:14:36;7.80;99.90
6377;DHT22;3221;48.858;10.128;2023-04-25T11:17:03;8.00;99.90
6377;DHT22;3221;48.858;10.128;2023-04-25T11:19:30;7.90;99.90
6377;DHT22;3221;48.858;10.128;2023-04-25T11:21:58;7.90;99.90
6377;DHT22;3221;48.858;10.128;2023-04-25T11:24:32;8.00;99.90
6377;DHT22;3221;48.858;10.128;2023-04-25T11:27:00;8.00;99.90
6377;DHT22;3221;48.858;10.128;2023-04-25T11:29:31;7.90;99.90
6377;DHT22;3221;48.858;10.128;2023-04-25T11:31:59;7.90;99.90
6377;DHT22;3221;48.858;10.128;2023-04-25T11:34:28;8.10;99.90
6377;DHT22;3221;48.858;10.128;2023-04-25T11:36:57;7.90;99.90
6377;DHT22;3221;48.858;10.128;2023-04-25T11:39:25;7.90;99.90
6377;DHT22;3221;48.858;10.128;2023-04-25T11:41:53;7.90;99.90
6377;DHT22;3221;48.858;10.128;2023-04-25T11:44:21;8.00;99.90
6377;DHT22;3221;48.858;10.128;2023-04-25T11:46:48;8.10;99.90
6377;DHT22;3221;48.858;10.128;2023-04-25T11:49:15;8.10;99.90
6377;DHT22;3221;48.858;10.128;2023-04-25T11:51:46;8.10;99.90
6377;DHT22;3221;48.858;10.128;2023-04-25T11:54:13;8.10;99.90
6377;DHT22;3221;48.858;10.128;2023-04-25T11:56:44;8.10;99.90
6377;DHT22;3221;48.858;10.128;2023-04-25T11:59:11;8.10;99.90
6377;DHT22;3221;48.858;10.128;2023-04-25T12:01:41;8.20;99.90
6377;DHT22;3221;48.858;10.128;2023-04-25T12:04:24;8.30;99.90
6377;DHT22;3221;48.858;10.128;2023-04-25T12:06:53;8.30;99.90
6377;DHT22;3221;48.858;10.128;2023-04-25T12:09:32;8.20;99.90
6377;DHT22;3221;48.858;10.128;2023-04-25T12:12:00;8.20;99.90
6377;DHT22;3221;48.858;10.128;2023-04-25T12:14:32;8.00;99.90
6377;DHT22;3221;48.858;10.128;2023-04-25T12:17:00;8.10;99.90
6377;DHT22;3221;48.858;10.128;2023-04-25T12:19:35;8.00;99.90
6377;DHT22;3221;48.858;10.128;2023-04-25T12:22:02;8.00;99.90
6377;DHT22;3221;48.858;10.128;2023-04-25T12:24:33;8.00;99.90
6377;DHT22;3221;48.858;10.128;2023-04-25T12:27:06;7.90;99.90
6377;DHT22;3221;48.858;10.128;2023-04-25T12:29:35;7.90;99.90
6377;DHT22;3221;48.858;10.128;2023-04-25T12:32:16;7.80;99.90
6377;DHT22;3221;48.858;10.128;2023-04-25T12:34:43;7.90;99.90
6377;DHT22;3221;48.858;10.128;2023-04-25T12:37:10;7.70;99.90
6377;DHT22;3221;48.858;10.128;2023-04-25T12:39:38;7.90;99.90
6377;DHT22;3221;48.858;10.128;2023-04-25T12:42:05;7.80;99.90
6377;DHT22;3221;48.858;10.128;2023-04-25T12:44:35;7.80;99.90
6377;DHT22;3221;48.858;10.128;2023-04-25T12:47:03;8.00;99.90
6377;DHT22;3221;48.858;10.128;2023-04-25T12:49:30;7.70;99.90
6377;DHT22;3221;48.858;10.128;2023-04-25T12:51:57;7.90;99.90
6377;DHT22;3221;48.858;10.128;2023-04-25T12:54:24;7.80;99.90
6377;DHT22;3221;48.858;10.128;2023-04-25T12:56:52;7.70;99.90
6377;DHT22;3221;48.858;10.128;2023-04-25T12:59:19;7.90;99.90
6377;DHT22;3221;48.858;10.128;2023-04-25T13:01:47;7.70;99.90
6377;DHT22;3221;48.858;10.128;2023-04-25T13:04:14;7.80;99.90
6377;DHT22;3221;48.858;10.128;2023-04-25T13:06:43;7.80;99.90
6377;DHT22;3221;48.858;10.128;2023-04-25T13:09:10;7.60;99.90
6377;DHT22;3221;48.858;10.128;2023-04-25T13:11:39;7.80;99.90
6377;DHT22;3221;48.858;10.128;2023-04-25T13:14:07;7.80;99.90
6377;DHT22;3221;48.858;10.128;2023-04-25T13:16:34;7.70;99.90
6377;DHT22;3221;48.858;10.128;2023-04-25T13:19:01;7.70;99.90
6377;DHT22;3221;48.858;10.128;2023-04-25T13:21:30;7.50;99.90
6377;DHT22;3221;48.858;10.128;2023-04-25T13:23:59;7.60;99.90
6377;DHT22;3221;48.858;10.128;2023-04-25T13:26:26;7.80;99.90
6377;DHT22;3221;48.858;10.128;2023-04-25T13:28:53;7.80;99.90
6377;DHT22;3221;48.858;10.128;2023-04-25T13:31:20;8.00;99.90
6377;DHT22;3221;48.858;10.128;2023-04-25T13:33:47;7.90;99.90
6377;DHT22;3221;48.858;10.128;2023-04-25T13:36:14;7.80;99.90
6377;DHT22;3221;48.858;10.128;2023-04-25T13:38:42;7.90;99.90
6377;DHT22;3221;48.858;10.128;2023-04-25T13:41:10;7.90;99.90
6377;DHT22;3221;48.858;10.128;2023-04-25T13:43:42;7.80;99.90
6377;DHT22;3221;48.858;10.128;2023-04-25T13:46:09;7.90;99.90
6377;DHT22;3221;48.858;10.128;2023-04-25T13:48:56;7.70;99.90
6377;DHT22;3221;48.858;10.128;2023-04-25T13:51:32;7.80;99.90
6377;DHT22;3221;48.858;10.128;2023-04-25T13:53:59;7.80;99.90
6377;DHT22;3221;48.858;10.128;2023-04-25T13:56:26;7.80;99.90
6377;DHT22;3221;48.858;10.128;2023-04-25T13:58:53;7.80;99.90
6377;DHT22;3221;48.858;10.128;2023-04-25T14:01:20;7.90;99.90
6377;DHT22;3221;48.858;10.128;2023-04-25T14:03:47;7.90;99.90
6377;DHT22;3221;48.858;10.128;2023-04-25T14:06:15;7.80;99.90
6377;DHT22;3221;48.858;10.128;2023-04-25T14:08:50;7.70;99.90
6377;DHT22;3221;48.858;10.128;2023-04-25T14:11:17;7.80;99.90
6377;DHT22;3221;48.858;10.128;2023-04-25T14:13:45;7.80;99.90
6377;DHT22;3221;48.858;10.128;2023-04-25T14:16:12;7.90;99.90
6377;DHT22;3221;48.858;10.128;2023-04-25T14:18:39;7.70;99.90
6377;DHT22;3221;48.858;10.128;2023-04-25T14:21:06;7.70;99.90
6377;DHT22;3221;48.858;10.128;2023-04-25T14:23:33;7.90;99.90
6377;DHT22;3221;48.858;10.128;2023-04-25T14:26:00;7.70;99.90
6377;DHT22;3221;48.858;10.128;2023-04-25T14:28:27;7.60;99.90
6377;DHT22;3221;48.858;10.128;2023-04-25T14:30:54;7.50;99.90
6377;DHT22;3221;48.858;10.128;2023-04-25T14:33:22;7.50;99.90
6377;DHT22;3221;48.858;10.128;2023-04-25T14:35:50;7.40;99.90
6377;DHT22;3221;48.858;10.128;2023-04-25T14:38:17;7.40;99.90
6377;DHT22;3221;48.858;10.128;2023-04-25T14:40:43;7.30;99.90
6377;DHT22;3221;48.858;10.128;2023-04-25T14:43:10;7.20;99.90
6377;DHT22;3221;48.858;10.128;2023-04-25T14:45:37;7.40;99.90
6377;DHT22;3221;48.858;10.128;2023-04-25T14:48:04;7.60;99.90
6377;DHT22;3221;48.858;10.128;2023-04-25T14:50:32;7.70;99.90
6377;DHT22;3221;48.858;10.128;2023-04-25T14:52:59;7.70;99.90
6377;DHT22;3221;48.858;10.128;2023-04-25T14:55:27;8.00;99.90
6377;DHT22;3221;48.858;10.128;2023-04-25T14:57:57;7.70;99.90
6377;DHT22;3221;48.858;10.128;2023-04-25T15:00:24;7.60;99.90
6377;DHT22;3221;48.858;10.128;2023-04-25T15:02:51;7.50;99.90
6377;DHT22;3221;48.858;10.128;2023-04-25T15:05:19;7.50;99.90
6377;DHT22;3221;48.858;10.128;2023-04-25T15:07:46;7.50;99.90
6377;DHT22;3221;48.858;10.128;2023-04-25T15:10:14;7.50;99.90
6377;DHT22;3221;48.858;10.128;2023-04-25T15:12:43;7.50;99.90
6377;DHT22;3221;48.858;10.128;2023-04-25T15:15:13;7.50;99.90
6377;DHT22;3221;48.858;10.128;2023-04-25T15:17:51;7.40;99.90
6377;DHT22;3221;48.858;10.128;2023-04-25T15:20:19;7.50;99.90
6377;DHT22;3221;48.858;10.128;2023-04-25T15:22:46;7.50;99.90
6377;DHT22;3221;48.858;10.128;2023-04-25T15:25:16;7.50;99.90
6377;DHT22;3221;48.858;10.128;2023-04-25T15:27:46;7.50;99.90
6377;DHT22;3221;48.858;10.128;2023-04-25T15:30:15;7.40;99.90
6377;DHT22;3221;48.858;10.128;2023-04-25T15:32:44;7.30;99.90
6377;DHT22;3221;48.858;10.128;2023-04-25T15:35:12;7.30;99.90
6377;DHT22;3221;48.858;10.128;2023-04-25T15:37:39;7.30;99.90
6377;DHT22;3221;48.858;10.128;2023-04-25T15:40:16;7.30;99.90
6377;DHT22;3221;48.858;10.128;2023-04-25T15:42:49;7.40;99.90
6377;DHT22;3221;48.858;10.128;2023-04-25T15:45:23;7.20;99.90
6377;DHT22;3221;48.858;10.128;2023-04-25T15:47:55;7.20;99.90
6377;DHT22;3221;48.858;10.128;2023-04-25T15:50:23;7.20;99.90
6377;DHT22;3221;48.858;10.128;2023-04-25T15:52:51;7.20;99.90
6377;DHT22;3221;48.858;10.128;2023-04-25T15:55:19;7.10;99.90
6377;DHT22;3221;48.858;10.128;2023-04-25T15:57:49;7.20;99.90
6377;DHT22;3221;48.858;10.128;2023-04-25T16:00:17;7.20;99.90
6377;DHT22;3221;48.858;10.128;2023-04-25T16:02:45;7.30;99.90
6377;DHT22;3221;48.858;10.128;2023-04-25T16:05:14;7.30;99.90
6377;DHT22;3221;48.858;10.128;2023-04-25T16:07:43;7.20;99.90
6377;DHT22;3221;48.858;10.128;2023-04-25T16:10:11;7.20;99.90
6377;DHT22;3221;48.858;10.128;2023-04-25T16:12:39;7.20;99.90
6377;DHT22;3221;48.858;10.128;2023-04-25T16:15:06;7.20;99.90
6377;DHT22;3221;48.858;10.128;2023-04-25T16:17:33;7.40;99.90
6377;DHT22;3221;48.858;10.128;2023-04-25T16:20:01;7.60;99.90
6377;DHT22;3221;48.858;10.128;2023-04-25T16:22:31;7.70;99.90
6377;DHT22;3221;48.858;10.128;2023-04-25T16:24:58;7.50;99.90